Time;durP1;ratioP1;P1;durP2;ratioP2;P2;SDS_P1;SDS_P2;PMS_P1;PMS_P2;Temp;Humidity;BMP_temperature;BMP_pressure;BME280_temperature;BME280_humidity;BME280_pressure;Samples;Min_cycle;Max_cycle;Signal;HPM_P1;HPM_P2
2024/01/13 00:02:00;;;;;;;0.20;0.20;;;;;;;0.72;76.61;97388.91;5047396;28;20106;-67
2024/01/13 00:04:27;;;;;;;0.20;0.20;;;;;;;0.85;76.05;97399.03;5029797;28;20057;-68
2024/01/13 00:06:53;;;;;;;0.22;0.22;;;;;;;0.67;76.03;97386.25;5027118;28;20062;-68
2024/01/13 00:09:20;;;;;;;0.20;0.20;;;;;;;0.73;75.62;97385.06;5042572;28;20527;-67
2024/01/13 00:11:47;;;;;;;0.20;0.20;;;;;;;0.45;75.06;97328.06;5027102;28;20057;-66
2024/01/13 00:14:14;;;;;;;0.28;0.28;;;;;;;0.87;74.91;97385.91;5027239;28;20554;-67
2024/01/13 00:16:41;;;;;;;0.20;0.20;;;;;;;0.39;75.05;97334.69;5027366;28;20065;-68
2024/01/13 00:19:07;;;;;;;0.25;0.25;;;;;;;0.20;74.52;97287.63;5027742;28;20440;-67
2024/01/13 00:21:34;;;;;;;0.20;0.20;;;;;;;0.82;75.01;97380.53;5027006;28;20144;-66
2024/01/13 00:24:01;;;;;;;0.20;0.20;;;;;;;-0.38;74.66;97194.69;5045684;28;20053;-67
2024/01/13 00:26:28;;;;;;;0.20;0.20;;;;;;;0.58;74.72;97344.47;5046997;28;20332;-67
2024/01/13 00:28:55;;;;;;;0.20;0.20;;;;;;;0.90;75.01;97379.84;5047339;28;20131;-67
2024/01/13 00:31:22;;;;;;;0.20;0.20;;;;;;;0.97;73.59;97377.56;5046865;28;20127;-67
2024/01/13 00:33:49;;;;;;;0.20;0.20;;;;;;;0.72;73.25;97322.66;5045834;28;20053;-67
2024/01/13 00:36:16;;;;;;;0.20;0.20;;;;;;;0.72;73.05;97331.66;5046953;28;20076;-67
2024/01/13 00:38:43;;;;;;;0.20;0.20;;;;;;;0.86;72.17;97329.75;5047016;28;20056;-67
2024/01/13 00:41:10;;;;;;;0.20;0.20;;;;;;;0.89;72.00;97322.88;5046726;28;20053;-67
2024/01/13 00:43:37;;;;;;;0.20;0.20;;;;;;;1.22;71.22;97382.53;5047141;28;20071;-67
2024/01/13 00:46:04;;;;;;;0.20;0.20;;;;;;;1.27;72.00;97374.25;5045307;28;20049;-67
2024/01/13 00:48:33;;;;;;;0.20;0.20;;;;;;;0.81;71.51;97316.22;5046920;28;20065;-68
2024/01/13 00:51:09;;;;;;;0.20;0.20;;;;;;;1.23;71.52;97380.63;5046717;28;20049;-67
2024/01/13 00:53:38;;;;;;;0.20;0.20;;;;;;;0.80;70.74;97295.53;5046714;28;20037;-66
2024/01/13 00:56:06;;;;;;;0.20;0.20;;;;;;;1.31;70.61;97369.78;5046770;28;20080;-66
2024/01/13 00:58:34;;;;;;;0.20;0.20;;;;;;;1.35;69.94;97373.53;5046901;28;20310;-67
2024/01/13 01:01:11;;;;;;;0.20;0.20;;;;;;;1.36;70.02;97369.69;5046665;28;20045;-67
2024/01/13 01:03:39;;;;;;;0.20;0.20;;;;;;;0.79;69.92;97284.94;5044604;28;20087;-67
2024/01/13 01:06:06;;;;;;;0.20;0.20;;;;;;;1.29;70.06;97377.50;5046336;28;20081;-66
2024/01/13 01:08:33;;;;;;;0.20;0.20;;;;;;;1.23;70.42;97373.22;5045669;28;20350;-66
2024/01/13 01:11:09;;;;;;;0.20;0.20;;;;;;;1.25;70.71;97360.09;5046188;28;20372;-66
2024/01/13 01:13:38;;;;;;;0.20;0.20;;;;;;;1.25;70.32;97371.00;5046068;28;20055;-67
2024/01/13 01:16:05;;;;;;;0.20;0.20;;;;;;;1.12;70.96;97355.44;5045962;28;20366;-68
2024/01/13 01:18:32;;;;;;;0.20;0.20;;;;;;;1.28;70.81;97375.84;5045704;28;20099;-66
2024/01/13 01:21:12;;;;;;;0.20;0.20;;;;;;;1.19;71.77;97368.66;5046026;28;20057;-68
2024/01/13 01:23:40;;;;;;;0.20;0.20;;;;;;;1.29;71.36;97354.84;5044557;28;20053;-66
2024/01/13 01:26:07;;;;;;;0.20;0.20;;;;;;;1.44;70.42;97363.53;5045704;28;20439;-68
2024/01/13 01:28:34;;;;;;;0.20;0.20;;;;;;;1.35;71.19;97359.91;5045907;28;20506;-67
2024/01/13 01:31:04;;;;;;;0.20;0.20;;;;;;;1.29;71.12;97344.75;5046052;28;20056;-67
2024/01/13 01:33:32;;;;;;;0.20;0.20;;;;;;;1.39;70.79;97352.72;5044585;28;20076;-67
2024/01/13 01:35:59;;;;;;;0.20;0.20;;;;;;;1.36;71.30;97349.78;5045728;28;20045;-68
2024/01/13 01:38:25;;;;;;;0.20;0.20;;;;;;;1.23;70.85;97348.66;5046288;28;20147;-69
2024/01/13 01:41:08;;;;;;;0.20;0.20;;;;;;;1.35;70.35;97343.53;5045627;28;20053;-67
2024/01/13 01:43:35;;;;;;;0.20;0.20;;;;;;;0.79;71.12;97296.63;5043997;28;20059;-67
2024/01/13 01:46:03;;;;;;;0.20;0.20;;;;;;;0.80;72.36;97341.88;5044000;28;20084;-68
2024/01/13 01:48:40;;;;;;;0.20;0.20;;;;;;;0.83;73.27;97330.38;5043995;28;20523;-69
2024/01/13 01:51:13;;;;;;;0.20;0.20;;;;;;;0.63;72.54;97278.97;5045152;28;20087;-66
2024/01/13 01:53:42;;;;;;;0.20;0.20;;;;;;;1.04;72.26;97337.03;5044238;28;20100;-65
2024/01/13 01:56:13;;;;;;;0.20;0.20;;;;;;;0.99;72.12;97328.97;5044104;28;20064;-67
2024/01/13 01:58:42;;;;;;;0.30;0.30;;;;;;;0.44;71.98;97245.53;5045669;28;20048;-66
2024/01/13 02:01:10;;;;;;;0.20;0.20;;;;;;;0.89;72.84;97326.44;5044075;28;20056;-68
2024/01/13 02:03:38;;;;;;;0.20;0.20;;;;;;;0.97;72.58;97317.56;5045280;28;20060;-66
2024/01/13 02:06:07;;;;;;;0.20;0.20;;;;;;;1.02;72.18;97317.47;5043832;28;20049;-66
2024/01/13 02:08:34;;;;;;;0.20;0.20;;;;;;;-0.53;71.47;97116.84;5045463;28;21294;-66
2024/01/13 02:11:10;;;;;;;0.20;0.20;;;;;;;1.04;72.01;97315.22;5043950;28;20053;-67
2024/01/13 02:13:41;;;;;;;0.20;0.20;;;;;;;1.03;72.18;97319.06;5045372;28;20136;-66
2024/01/13 02:16:09;;;;;;;0.20;0.20;;;;;;;1.23;71.20;97315.94;5043822;28;20482;-66
2024/01/13 02:18:36;;;;;;;0.20;0.20;;;;;;;1.31;70.88;97307.03;5044948;28;20049;-66
2024/01/13 02:21:08;;;;;;;0.20;0.20;;;;;;;1.17;70.97;97319.88;5043509;28;20052;-67
2024/01/13 02:23:36;;;;;;;0.20;0.20;;;;;;;1.16;71.60;97318.25;5044920;28;20226;-66
2024/01/13 02:26:03;;;;;;;0.20;0.20;;;;;;;0.73;71.28;97267.84;5044508;28;20061;-66
2024/01/13 02:28:30;;;;;;;0.20;0.20;;;;;;;1.12;71.79;97319.97;5045097;28;20080;-67
2024/01/13 02:31:12;;;;;;;0.20;0.20;;;;;;;1.08;71.88;97308.06;5072490;28;20044;-67
2024/01/13 02:33:40;;;;;;;0.20;0.20;;;;;;;1.16;72.04;97329.19;5076337;28;20064;-67
2024/01/13 02:36:07;;;;;;;0.22;0.22;;;;;;;1.04;71.50;97315.22;5044399;28;20048;-67
2024/01/13 02:38:34;;;;;;;0.20;0.20;;;;;;;1.25;71.58;97327.34;5044499;28;20048;-67
2024/01/13 02:41:05;;;;;;;0.20;0.20;;;;;;;1.27;71.09;97329.78;5044404;28;20534;-68
2024/01/13 02:43:34;;;;;;;0.20;0.20;;;;;;;0.97;70.46;97276.66;5044549;28;20391;-66
2024/01/13 02:46:01;;;;;;;0.20;0.20;;;;;;;1.20;71.02;97338.34;5044494;28;20412;-67
2024/01/13 02:48:38;;;;;;;0.20;0.20;;;;;;;1.03;72.06;97340.06;5043452;28;20049;-67
2024/01/13 02:51:11;;;;;;;0.20;0.20;;;;;;;1.17;71.39;97338.19;5044411;28;20136;-68
2024/01/13 02:53:38;;;;;;;0.20;0.20;;;;;;;1.28;70.95;97343.09;5044891;28;20081;-66
2024/01/13 02:56:05;;;;;;;0.20;0.20;;;;;;;1.08;70.93;97313.50;5043939;28;20056;-67
2024/01/13 02:58:33;;;;;;;0.20;0.20;;;;;;;1.29;70.45;97339.28;5044522;28;20151;-66
2024/01/13 03:01:11;;;;;;;0.20;0.20;;;;;;;0.67;72.44;97337.19;5044201;28;20135;-67
2024/01/13 03:03:38;;;;;;;0.20;0.20;;;;;;;-0.01;73.97;97298.03;5044100;28;20499;-67
2024/01/13 03:06:06;;;;;;;0.20;0.20;;;;;;;-0.45;74.31;97233.16;5043737;28;20053;-68
2024/01/13 03:08:34;;;;;;;0.20;0.20;;;;;;;0.33;73.26;97331.28;5044454;28;20053;-67
2024/01/13 03:11:11;;;;;;;0.20;0.20;;;;;;;0.29;73.72;97345.75;5044271;28;20389;-68
2024/01/13 03:13:41;;;;;;;0.20;0.20;;;;;;;0.44;73.61;97338.16;5075428;28;20164;-68
2024/01/13 03:16:07;;;;;;;0.20;0.20;;;;;;;0.51;73.86;97335.84;5044386;28;20111;-67
2024/01/13 03:18:35;;;;;;;0.20;0.20;;;;;;;0.41;74.68;97327.84;5075531;28;20056;-67
2024/01/13 03:21:11;;;;;;;0.20;0.20;;;;;;;0.47;75.56;97325.84;5044211;28;20064;-67
2024/01/13 03:23:41;;;;;;;0.20;0.20;;;;;;;0.41;75.66;97322.38;5044058;28;20106;-66
2024/01/13 03:26:09;;;;;;;0.20;0.20;;;;;;;-0.46;76.78;97203.53;5042700;28;20052;-66
2024/01/13 03:28:36;;;;;;;0.20;0.20;;;;;;;0.27;77.41;97332.44;5044368;28;20076;-66
2024/01/13 03:31:09;;;;;;;0.20;0.20;;;;;;;0.28;77.70;97317.72;5043429;28;20542;-67
2024/01/13 03:33:37;;;;;;;0.20;0.20;;;;;;;0.30;76.37;97320.94;5043626;28;20056;-67
2024/01/13 03:36:05;;;;;;;0.20;0.20;;;;;;;-0.71;76.45;97144.88;5043927;28;20467;-67
2024/01/13 03:38:32;;;;;;;0.30;0.30;;;;;;;0.32;77.02;97313.28;5043995;28;20057;-68
2024/01/13 03:41:08;;;;;;;0.20;0.20;;;;;;;0.34;76.51;97326.63;5043624;28;20110;-68
2024/01/13 03:43:35;;;;;;;0.20;0.20;;;;;;;0.41;76.90;97316.16;5043654;28;20423;-67
2024/01/13 03:46:03;;;;;;;0.20;0.20;;;;;;;0.49;76.12;97308.09;5043476;28;20068;-68
2024/01/13 03:48:30;;;;;;;0.20;0.20;;;;;;;0.01;75.87;97216.88;5042135;28;20565;-67
2024/01/13 03:50:59;;;;;;;0.20;0.20;;;;;;;-0.24;75.79;97181.94;5042122;28;20071;-66
2024/01/13 03:53:28;;;;;;;0.30;0.30;;;;;;;0.12;75.24;97237.38;5043784;28;20404;-66
2024/01/13 03:55:55;;;;;;;0.20;0.20;;;;;;;0.61;76.03;97313.88;5043474;28;20059;-66
2024/01/13 03:58:22;;;;;;;0.20;0.20;;;;;;;0.75;74.67;97322.88;5043626;28;20136;-66
2024/01/13 04:00:49;;;;;;;0.20;0.20;;;;;;;0.77;74.43;97325.31;5036347;28;20533;-66
2024/01/13 04:03:19;;;;;;;0.20;0.20;;;;;;;0.64;74.25;97309.72;5023962;28;20099;-66
2024/01/13 04:05:47;;;;;;;0.22;0.22;;;;;;;0.76;74.63;97334.59;5023263;28;20053;-67
2024/01/13 04:08:14;;;;;;;0.20;0.20;;;;;;;0.34;74.65;97253.88;5023909;28;20839;-66
2024/01/13 04:10:40;;;;;;;0.20;0.20;;;;;;;0.90;74.43;97328.03;5023466;28;20049;-66
2024/01/13 04:13:14;;;;;;;0.20;0.20;;;;;;;0.27;73.76;97234.38;5023782;28;20052;-67
2024/01/13 04:15:41;;;;;;;0.20;0.20;;;;;;;-1.39;73.56;97276.00;5023683;28;20049;-67
2024/01/13 04:18:08;;;;;;;0.20;0.20;;;;;;;0.67;74.09;97299.03;5023408;28;20253;-66
2024/01/13 04:20:36;;;;;;;0.20;0.20;;;;;;;0.84;73.69;97334.69;5023502;28;20060;-66
2024/01/13 04:23:03;;;;;;;0.20;0.20;;;;;;;0.83;73.43;97346.72;5026494;28;20501;-66
2024/01/13 04:25:31;;;;;;;0.20;0.20;;;;;;;0.83;73.10;97327.66;5042966;28;20076;-67
2024/01/13 04:28:00;;;;;;;0.20;0.20;;;;;;;0.32;72.69;97247.13;5043706;28;20815;-67
2024/01/13 04:30:28;;;;;;;0.20;0.20;;;;;;;0.80;72.94;97336.44;5043395;28;20049;-67
2024/01/13 04:32:57;;;;;;;0.20;0.20;;;;;;;0.92;72.36;97355.81;5043094;28;20052;-67
2024/01/13 04:35:24;;;;;;;0.20;0.20;;;;;;;0.94;71.01;97342.69;5043594;28;20049;-67
2024/01/13 04:37:51;;;;;;;0.20;0.20;;;;;;;0.88;71.20;97333.00;5042929;28;20079;-66
2024/01/13 04:40:18;;;;;;;0.20;0.20;;;;;;;0.57;69.48;97301.94;5043468;28;20060;-67
2024/01/13 04:42:44;;;;;;;0.20;0.20;;;;;;;0.78;70.69;97344.09;5041891;28;20462;-67
2024/01/13 04:45:11;;;;;;;0.20;0.20;;;;;;;0.72;72.47;97345.28;5046806;28;20080;-67
2024/01/13 04:47:38;;;;;;;0.20;0.20;;;;;;;0.14;71.95;97240.63;5045342;28;20049;-66
2024/01/13 04:50:05;;;;;;;0.20;0.20;;;;;;;0.72;70.78;97337.13;5046259;28;20048;-67
2024/01/13 04:52:32;;;;;;;0.20;0.20;;;;;;;0.73;71.34;97329.72;5046288;28;20431;-68
2024/01/13 04:54:59;;;;;;;0.20;0.20;;;;;;;0.78;71.35;97348.72;5046833;28;20085;-67
2024/01/13 04:57:25;;;;;;;0.20;0.20;;;;;;;0.78;70.14;97327.72;5044726;28;20060;-67
2024/01/13 04:59:52;;;;;;;0.20;0.20;;;;;;;0.21;67.43;97257.38;5046629;28;20049;-67
2024/01/13 05:02:19;;;;;;;0.20;0.20;;;;;;;0.41;66.87;97278.78;5046448;28;20049;-66
2024/01/13 05:04:46;;;;;;;0.20;0.20;;;;;;;0.79;67.90;97329.34;5045122;28;20081;-68
2024/01/13 05:07:13;;;;;;;0.20;0.20;;;;;;;0.67;68.26;97299.03;5046106;28;20520;-67
2024/01/13 05:09:39;;;;;;;0.20;0.20;;;;;;;0.81;68.86;97316.22;5046561;28;20049;-67
2024/01/13 05:12:06;;;;;;;0.17;0.17;;;;;;;-1.25;67.93;96983.50;5045209;28;20055;-66
2024/01/13 05:14:33;;;;;;;0.20;0.20;;;;;;;0.55;67.00;97306.91;5046119;28;20061;-66
2024/01/13 05:17:04;;;;;;;0.20;0.20;;;;;;;0.61;65.92;97316.59;5044204;28;20045;-65
2024/01/13 05:19:31;;;;;;;0.20;0.20;;;;;;;0.74;68.09;97315.81;5045785;28;20048;-65
2024/01/13 05:21:58;;;;;;;0.20;0.20;;;;;;;0.77;69.89;97326.13;5044557;28;20135;-66
2024/01/13 05:24:25;;;;;;;0.20;0.20;;;;;;;0.74;68.80;97315.00;5046197;28;20045;-66
2024/01/13 05:26:52;;;;;;;0.20;0.20;;;;;;;0.71;68.35;97316.41;5077304;28;20183;-66
2024/01/13 05:29:19;;;;;;;0.20;0.20;;;;;;;0.78;68.72;97311.38;5046212;28;20150;-66
2024/01/13 05:31:49;;;;;;;0.20;0.20;;;;;;;0.87;69.67;97306.03;5045781;28;20614;-66
2024/01/13 05:34:15;;;;;;;0.20;0.20;;;;;;;0.83;68.66;97296.84;5045681;28;20053;-65
2024/01/13 05:36:42;;;;;;;0.20;0.20;;;;;;;0.77;68.55;97309.78;5045901;28;20065;-64
2024/01/13 05:39:09;;;;;;;0.20;0.20;;;;;;;0.47;68.97;97244.09;5045770;28;20595;-66
2024/01/13 05:41:36;;;;;;;0.20;0.20;;;;;;;0.74;68.08;97283.13;5045894;28;20057;-67
2024/01/13 05:44:03;;;;;;;0.20;0.20;;;;;;;0.48;68.46;97262.88;5045869;28;20164;-66
2024/01/13 05:46:30;;;;;;;0.20;0.20;;;;;;;0.89;68.42;97315.53;5045473;28;20455;-66
2024/01/13 05:48:58;;;;;;;0.20;0.20;;;;;;;0.44;67.56;97250.97;5045811;28;20392;-66
2024/01/13 05:51:25;;;;;;;0.20;0.20;;;;;;;0.73;67.52;97289.66;5045046;28;20130;-67
2024/01/13 05:53:51;;;;;;;0.20;0.20;;;;;;;0.89;67.87;97304.63;5077136;28;20048;-65
2024/01/13 05:56:18;;;;;;;0.20;0.20;;;;;;;0.53;67.08;97254.63;5045547;28;20079;-65
2024/01/13 05:58:45;;;;;;;0.20;0.20;;;;;;;0.92;67.01;97312.19;5045560;28;20492;-66
2024/01/13 06:01:12;;;;;;;0.20;0.20;;;;;;;0.99;67.29;97318.06;5045104;28;20056;-67
2024/01/13 06:03:38;;;;;;;0.20;0.20;;;;;;;0.83;66.71;97318.66;5045675;28;20069;-66
2024/01/13 06:06:07;;;;;;;0.20;0.20;;;;;;;-0.16;66.58;97186.69;5027736;28;20057;-67
2024/01/13 06:08:35;;;;;;;0.20;0.20;;;;;;;0.91;66.06;97326.94;5025424;28;20059;-66
2024/01/13 06:11:02;;;;;;;0.20;0.20;;;;;;;0.27;65.88;97196.25;5040033;28;20046;-66
2024/01/13 06:13:29;;;;;;;0.20;0.20;;;;;;;0.99;66.31;97307.16;5024895;28;20057;-66
2024/01/13 06:15:55;;;;;;;0.20;0.20;;;;;;;0.74;65.41;97260.50;5025400;28;20056;-66
2024/01/13 06:18:22;;;;;;;0.20;0.20;;;;;;;0.66;65.87;97253.84;5025481;28;20061;-67
2024/01/13 06:20:50;;;;;;;0.20;0.20;;;;;;;0.91;66.05;97286.06;5025520;28;20419;-66
2024/01/13 06:23:17;;;;;;;0.20;0.20;;;;;;;1.07;66.20;97301.00;5027909;28;20936;-66
2024/01/13 06:25:44;;;;;;;0.20;0.20;;;;;;;0.62;66.46;97228.28;5044526;28;20075;-65
2024/01/13 06:28:10;;;;;;;0.30;0.30;;;;;;;1.16;65.71;97295.63;5045301;28;20049;-67
2024/01/13 06:30:37;;;;;;;0.20;0.20;;;;;;;1.16;65.71;97293.72;5045084;28;20060;-66
2024/01/13 06:33:04;;;;;;;0.20;0.20;;;;;;;0.73;65.65;97221.50;5043808;28;20076;-67
2024/01/13 06:35:31;;;;;;;0.20;0.20;;;;;;;1.24;64.73;97300.38;5045235;28;20053;-66
2024/01/13 06:37:58;;;;;;;0.20;0.20;;;;;;;1.23;64.98;97312.41;5045118;28;20076;-68
2024/01/13 06:40:25;;;;;;;0.20;0.20;;;;;;;1.28;65.47;97312.31;5044830;28;20059;-67
2024/01/13 06:42:52;;;;;;;0.30;0.30;;;;;;;1.27;65.32;97308.75;5044314;28;20118;-66
2024/01/13 06:45:18;;;;;;;0.20;0.20;;;;;;;1.37;64.07;97308.56;5043088;28;20053;-68
2024/01/13 06:47:45;;;;;;;0.30;0.30;;;;;;;1.41;64.54;97301.38;5044326;28;20568;-67
2024/01/13 06:50:12;;;;;;;0.30;0.30;;;;;;;1.05;64.50;97243.22;5044606;28;20048;-67
2024/01/13 06:52:39;;;;;;;0.20;0.20;;;;;;;1.50;63.97;97313.19;5043101;28;20053;-68
2024/01/13 06:55:07;;;;;;;0.20;0.20;;;;;;;1.45;63.75;97307.81;5043276;28;20053;-67
2024/01/13 06:57:34;;;;;;;0.20;0.20;;;;;;;1.47;62.99;97319.25;5044047;28;20056;-67
2024/01/13 07:00:07;;;;;;;0.20;0.20;;;;;;;1.26;63.86;97301.69;5044669;28;20053;-66
2024/01/13 07:02:34;;;;;;;0.20;0.20;;;;;;;0.81;65.66;97318.94;5043899;28;20482;-67
2024/01/13 07:05:01;;;;;;;0.20;0.20;;;;;;;0.73;66.76;97321.56;5044544;28;20084;-68
2024/01/13 07:07:29;;;;;;;0.20;0.20;;;;;;;0.15;68.00;97323.94;5043042;28;20441;-65
2024/01/13 07:09:55;;;;;;;0.20;0.20;;;;;;;0.24;68.86;97315.91;5042860;28;20049;-65
2024/01/13 07:12:22;;;;;;;0.20;0.20;;;;;;;-0.33;70.16;97319.75;5043133;28;20139;-66
2024/01/13 07:14:49;;;;;;;0.20;0.20;;;;;;;-0.48;71.94;97328.97;5043367;28;20122;-67
2024/01/13 07:17:16;;;;;;;0.20;0.20;;;;;;;-0.45;71.52;97327.56;5041629;28;20053;-68
2024/01/13 07:19:43;;;;;;;0.20;0.20;;;;;;;-0.45;72.29;97314.78;5041542;28;20051;-65
2024/01/13 07:22:10;;;;;;;0.20;0.20;;;;;;;-1.13;71.82;97165.91;5026829;28;20053;-64
2024/01/13 07:24:37;;;;;;;0.20;0.20;;;;;;;0.10;70.55;97315.84;5043239;28;20084;-65
2024/01/13 07:27:04;;;;;;;0.20;0.20;;;;;;;-0.46;70.78;97298.75;5042752;28;20069;-64
2024/01/13 07:29:32;;;;;;;0.20;0.20;;;;;;;-1.03;73.37;97231.00;5043028;28;20063;-63
2024/01/13 07:31:58;;;;;;;0.20;0.20;;;;;;;-2.33;73.94;97060.44;5042200;28;20060;-69
2024/01/13 07:34:25;;;;;;;0.20;0.20;;;;;;;-2.10;74.12;97123.91;5058112;28;20137;-69
2024/01/13 07:36:52;;;;;;;0.20;0.20;;;;;;;-2.76;73.62;96953.00;5057582;28;20047;-65
2024/01/13 07:39:19;;;;;;;0.20;0.20;;;;;;;-0.36;72.39;97323.06;5043587;28;20056;-64
2024/01/13 07:41:50;;;;;;;0.20;0.20;;;;;;;-1.25;71.48;97211.72;5040709;28;20430;-69
2024/01/13 07:44:18;;;;;;;0.20;0.20;;;;;;;-1.62;72.01;97186.09;5038444;28;20049;-67
2024/01/13 07:46:44;;;;;;;0.20;0.20;;;;;;;0.10;71.53;97326.72;5027019;28;20049;-67
2024/01/13 07:49:11;;;;;;;0.20;0.20;;;;;;;-0.03;70.49;97275.75;5041498;28;20072;-69
2024/01/13 07:51:38;;;;;;;0.20;0.20;;;;;;;-0.09;69.15;97253.25;5024855;28;20045;-69
2024/01/13 07:54:05;;;;;;;0.20;0.20;;;;;;;0.66;67.58;97319.25;5032365;28;20128;-71
2024/01/13 07:56:33;;;;;;;0.20;0.20;;;;;;;0.38;66.75;97262.28;5035504;28;20049;-63
2024/01/13 07:59:03;;;;;;;0.20;0.20;;;;;;;0.91;66.07;97332.41;5041413;28;20060;-65
2024/01/13 08:01:29;;;;;;;0.20;0.20;;;;;;;1.02;65.36;97322.91;5041292;28;20049;-66
2024/01/13 08:04:04;;;;;;;0.20;0.20;;;;;;;1.13;64.35;97327.06;5039748;28;20085;-64
2024/01/13 08:06:31;;;;;;;0.20;0.20;;;;;;;1.27;64.57;97336.06;5041906;28;20056;-70
2024/01/13 08:08:58;;;;;;;0.20;0.20;;;;;;;1.22;63.89;97284.31;5043242;28;20066;-68
2024/01/13 08:11:25;;;;;;;0.20;0.20;;;;;;;1.32;62.18;97273.19;5040115;28;20053;-70
2024/01/13 08:14:03;;;;;;;0.20;0.20;;;;;;;-1.57;62.22;96819.47;5040104;28;20064;-66
2024/01/13 08:16:31;;;;;;;0.20;0.20;;;;;;;1.05;62.48;97265.03;5041530;28;20777;-67
2024/01/13 08:19:00;;;;;;;0.20;0.20;;;;;;;1.94;62.08;97295.28;5044584;28;20045;-69
2024/01/13 08:21:28;;;;;;;0.20;0.20;;;;;;;1.40;60.62;97197.97;5046513;28;20044;-69
2024/01/13 08:24:05;;;;;;;0.30;0.30;;;;;;;2.53;59.00;97319.53;5046287;28;20053;-67
2024/01/13 08:26:33;;;;;;;0.20;0.20;;;;;;;2.47;57.47;97263.34;5044672;28;20119;-67
2024/01/13 08:29:00;;;;;;;0.20;0.20;;;;;;;2.49;55.96;97252.91;5042390;28;20049;-64
2024/01/13 08:31:26;;;;;;;0.20;0.20;;;;;;;2.66;55.34;97263.91;5044406;28;20037;-65
2024/01/13 08:34:06;;;;;;;0.20;0.20;;;;;;;1.72;55.15;97090.47;5044790;28;20061;-63
2024/01/13 08:36:33;;;;;;;0.20;0.20;;;;;;;3.27;55.33;97312.31;5045980;28;20575;-67
2024/01/13 08:39:00;;;;;;;0.30;0.30;;;;;;;2.87;54.77;97204.81;5037089;28;20061;-62
2024/01/13 08:41:27;;;;;;;0.20;0.20;;;;;;;3.75;54.26;97311.16;5027019;28;20055;-66
2024/01/13 08:44:01;;;;;;;0.20;0.20;;;;;;;3.52;53.07;97260.38;5046859;28;20057;-68
2024/01/13 08:46:28;;;;;;;0.30;0.30;;;;;;;3.03;52.30;97206.00;5039796;28;20132;-67
2024/01/13 08:48:55;;;;;;;0.20;0.20;;;;;;;3.04;52.53;97226.75;5045106;28;20056;-69
2024/01/13 08:51:23;;;;;;;0.20;0.20;;;;;;;3.67;52.89;97306.44;5045967;28;20124;-65
2024/01/13 08:54:04;;;;;;;0.30;0.30;;;;;;;3.56;52.86;97272.28;5045555;28;20530;-70
2024/01/13 08:56:35;;;;;;;0.30;0.30;;;;;;;4.08;51.80;97301.34;5045267;28;20060;-71
2024/01/13 08:59:04;;;;;;;0.20;0.20;;;;;;;4.35;52.12;97300.19;5044197;28;20072;-71
2024/01/13 09:01:32;;;;;;;0.30;0.30;;;;;;;4.28;51.54;97240.34;5043930;28;20106;-69
2024/01/13 09:04:06;;;;;;;0.20;0.20;;;;;;;3.87;50.53;97168.06;5045612;28;20574;-70
2024/01/13 09:06:33;;;;;;;0.30;0.30;;;;;;;4.82;51.35;97292.88;5043577;28;20049;-71
2024/01/13 09:09:00;;;;;;;0.30;0.30;;;;;;;4.23;49.61;97202.19;5036416;28;20512;-70
2024/01/13 09:11:28;;;;;;;0.30;0.30;;;;;;;4.24;50.36;97305.22;5027514;28;20152;-67
2024/01/13 09:14:09;;;;;;;0.30;0.30;;;;;;;3.55;50.29;97248.78;5038565;28;20060;-63
2024/01/13 09:16:36;;;;;;;0.20;0.20;;;;;;;3.79;50.93;97334.06;5053168;28;20057;-68
2024/01/13 09:19:03;;;;;;;0.20;0.20;;;;;;;2.82;51.67;97172.94;5047877;28;20164;-63
2024/01/13 09:21:32;;;;;;;0.22;0.22;;;;;;;2.67;51.81;97189.00;5041707;28;20056;-71
2024/01/13 09:24:08;;;;;;;0.20;0.20;;;;;;;2.41;52.63;97204.47;5041345;28;20143;-64
2024/01/13 09:26:43;;;;;;;0.20;0.20;;;;;;;2.85;52.92;97261.75;5020961;28;20058;-63
2024/01/13 09:29:15;;;;;;;0.20;0.20;;;;;;;1.12;53.37;97033.56;5019805;28;20098;-70
2024/01/13 09:31:44;;;;;;;0.20;0.20;;;;;;;2.69;53.43;97263.28;5035387;28;20080;-70
2024/01/13 09:34:12;;;;;;;0.20;0.20;;;;;;;2.65;53.11;97267.78;5039563;28;20125;-66
2024/01/13 09:36:42;;;;;;;0.30;0.30;;;;;;;2.74;52.77;97250.31;5042567;28;20331;-66
2024/01/13 09:39:14;;;;;;;0.20;0.20;;;;;;;2.09;52.37;97145.47;5024595;28;20057;-60
2024/01/13 09:41:43;;;;;;;0.20;0.20;;;;;;;1.63;53.42;97133.31;5025035;28;20057;-62
2024/01/13 09:44:10;;;;;;;0.20;0.20;;;;;;;2.37;52.70;97244.47;5035105;28;20053;-62
2024/01/13 09:46:38;;;;;;;0.30;0.30;;;;;;;1.35;52.94;97059.75;5050817;28;20478;-66
2024/01/13 09:49:12;;;;;;;0.20;0.20;;;;;;;0.08;53.67;96909.63;5037065;28;20523;-66
2024/01/13 09:51:40;;;;;;;0.20;0.20;;;;;;;2.46;53.31;97177.81;5030371;28;20059;-67
2024/01/13 09:54:25;;;;;;;0.20;0.20;;;;;;;2.73;52.87;97231.47;5037508;28;20455;-65
2024/01/13 09:56:53;;;;;;;0.20;0.20;;;;;;;2.46;52.81;97177.00;5043257;28;20110;-64
2024/01/13 09:59:22;;;;;;;0.20;0.20;;;;;;;2.54;53.02;97146.16;5043395;28;20053;-67
2024/01/13 10:01:49;;;;;;;0.30;0.30;;;;;;;2.64;52.34;97113.06;5033201;28;20462;-64
2024/01/13 10:04:16;;;;;;;0.20;0.20;;;;;;;3.57;51.55;97219.16;5047407;28;20052;-61
2024/01/13 10:06:47;;;;;;;0.30;0.30;;;;;;;3.80;51.08;97203.34;5040354;28;20077;-65
2024/01/13 10:09:15;;;;;;;0.20;0.20;;;;;;;3.91;50.88;97199.97;5032823;28;20102;-69
2024/01/13 10:11:59;;;;;;;0.20;0.20;;;;;;;4.04;50.85;97196.25;5026183;28;20620;-64
2024/01/13 10:14:26;;;;;;;0.30;0.30;;;;;;;4.20;51.21;97213.78;5040394;28;20049;-70
2024/01/13 10:16:53;;;;;;;0.25;0.25;;;;;;;3.52;50.17;97074.16;5042120;28;20118;-71
2024/01/13 10:19:24;;;;;;;0.22;0.22;;;;;;;2.88;49.72;96943.84;5044556;28;20519;-64
2024/01/13 10:21:56;;;;;;;0.25;0.25;;;;;;;2.90;49.64;96983.44;5042249;28;20541;-66
2024/01/13 10:24:23;;;;;;;0.30;0.30;;;;;;;4.23;49.82;97188.47;5038897;28;20053;-64
2024/01/13 10:26:50;;;;;;;0.30;0.30;;;;;;;4.38;50.08;97196.16;5040565;28;20103;-71
2024/01/13 10:29:19;;;;;;;0.30;0.30;;;;;;;4.38;49.39;97220.84;5035091;28;20132;-71
2024/01/13 10:31:53;;;;;;;0.30;0.30;;;;;;;4.32;49.47;97175.53;5039726;28;20109;-72
2024/01/13 10:34:20;;;;;;;0.25;0.25;;;;;;;3.38;48.92;96985.13;5052595;28;20052;-66
2024/01/13 10:36:48;;;;;;;0.30;0.30;;;;;;;4.40;49.41;97169.22;5053467;28;20121;-61
2024/01/13 10:39:15;;;;;;;0.30;0.30;;;;;;;4.38;48.87;97157.78;5060532;28;21265;-63
2024/01/13 10:41:50;;;;;;;0.20;0.20;;;;;;;4.50;48.81;97157.88;5063825;28;20051;-64
2024/01/13 10:44:21;;;;;;;0.30;0.30;;;;;;;4.58;48.98;97168.00;5064443;28;20094;-64
2024/01/13 10:46:49;;;;;;;0.20;0.20;;;;;;;4.03;48.81;97071.28;5062797;28;20974;-64
2024/01/13 10:49:27;;;;;;;0.20;0.20;;;;;;;4.60;48.79;97146.56;5064636;28;20400;-63
2024/01/13 10:51:58;;;;;;;0.30;0.30;;;;;;;4.79;48.14;97145.34;5053782;28;20138;-62
2024/01/13 10:54:27;;;;;;;0.30;0.30;;;;;;;4.66;47.55;97147.19;5059331;28;20153;-62
2024/01/13 10:56:55;;;;;;;0.30;0.30;;;;;;;4.59;47.63;97136.72;5059193;28;20068;-63
2024/01/13 10:59:28;;;;;;;0.30;0.30;;;;;;;4.46;47.27;97121.28;5043917;28;20052;-62
2024/01/13 11:01:58;;;;;;;0.30;0.30;;;;;;;4.78;46.79;97130.00;5043762;28;20471;-63
2024/01/13 11:04:27;;;;;;;0.30;0.30;;;;;;;4.93;46.95;97134.94;5044107;28;20057;-63
2024/01/13 11:06:54;;;;;;;0.30;0.30;;;;;;;4.95;46.21;97099.75;5043461;28;20149;-63
2024/01/13 11:09:24;;;;;;;0.30;0.30;;;;;;;5.16;46.66;97128.00;5043816;28;20052;-62
2024/01/13 11:12:09;;;;;;;0.30;0.30;;;;;;;5.11;45.93;97125.44;5044795;28;20053;-64
2024/01/13 11:14:54;;;;;;;0.30;0.30;;;;;;;4.83;44.81;97033.78;5044140;28;20056;-64
2024/01/13 11:17:21;;;;;;;0.30;0.30;;;;;;;4.93;45.83;97041.63;5035548;28;20056;-65
2024/01/13 11:19:48;;;;;;;0.30;0.30;;;;;;;5.45;46.23;97108.72;5043730;28;20102;-65
2024/01/13 11:22:34;;;;;;;0.30;0.30;;;;;;;5.46;45.61;97102.09;5042586;28;20056;-67
2024/01/13 11:25:22;;;;;;;0.30;0.30;;;;;;;5.70;45.99;97088.47;5052708;28;20048;-64
2024/01/13 11:27:59;;;;;;;0.30;0.30;;;;;;;5.68;45.34;97088.00;5063453;28;20129;-63
2024/01/13 11:30:37;;;;;;;0.30;0.30;;;;;;;5.35;45.56;97082.47;5063776;28;20132;-63
2024/01/13 11:33:10;;;;;;;0.30;0.30;;;;;;;5.17;46.16;97014.31;5064033;28;20084;-63
2024/01/13 11:35:38;;;;;;;0.30;0.30;;;;;;;5.76;45.14;97073.38;5062293;28;20420;-62
2024/01/13 11:38:06;;;;;;;0.30;0.30;;;;;;;5.94;44.82;97078.38;5062177;28;20511;-63
2024/01/13 11:40:34;;;;;;;0.38;0.38;;;;;;;6.02;45.64;97071.19;5063647;28;20147;-62
2024/01/13 11:43:03;;;;;;;0.40;0.40;;;;;;;5.26;44.81;97078.19;5062078;28;20086;-63
2024/01/13 11:45:41;;;;;;;0.30;0.30;;;;;;;4.25;46.84;97054.59;5063547;28;20132;-62
2024/01/13 11:48:40;;;;;;;0.30;0.30;;;;;;;5.13;45.91;97073.75;5063576;28;20139;-66
2024/01/13 11:51:10;;;;;;;0.30;0.30;;;;;;;5.32;45.34;97076.84;5059248;28;20101;-63